createdAt,value
2018-02-08T00:01:01.432Z,0
2018-02-08T00:02:23.115Z,0
2018-02-08T00:03:45.283Z,0
2018-02-08T00:05:06.868Z,0
2018-02-08T00:06:28.882Z,0
2018-02-08T00:07:51.029Z,0
2018-02-08T00:09:13.290Z,0
2018-02-08T00:10:35.075Z,0
2018-02-08T00:11:56.962Z,0
2018-02-08T00:13:18.833Z,0
2018-02-08T00:14:40.996Z,0
2018-02-08T00:16:02.652Z,0
2018-02-08T00:17:24.825Z,0
2018-02-08T00:18:47.110Z,0
2018-02-08T00:20:08.722Z,0
2018-02-08T00:21:30.839Z,0
2018-02-08T00:22:52.958Z,0
2018-02-08T00:24:14.847Z,0
2018-02-08T00:25:36.716Z,0
2018-02-08T00:26:58.661Z,0
2018-02-08T00:28:20.711Z,0
2018-02-08T00:29:42.352Z,0
2018-02-08T00:31:04.483Z,0
2018-02-08T00:32:26.358Z,0
2018-02-08T00:33:48.461Z,0
2018-02-08T00:35:10.572Z,0
2018-02-08T00:36:32.681Z,0
2018-02-08T00:37:54.261Z,0
2018-02-08T00:39:16.383Z,0
2018-02-08T00:40:38.636Z,0
2018-02-08T00:42:00.282Z,0
2018-02-08T00:43:21.942Z,0
2018-02-08T00:44:43.526Z,0
2018-02-08T00:46:05.387Z,0
2018-02-08T00:47:27.010Z,0
2018-02-08T00:48:48.890Z,0
2018-02-08T00:50:11.011Z,0
2018-02-08T00:51:32.872Z,0
2018-02-08T00:52:54.958Z,0
2018-02-08T00:54:16.807Z,0
2018-02-08T00:55:38.629Z,0
2018-02-08T00:57:00.778Z,0
2018-02-08T00:58:22.112Z,0
2018-02-08T00:59:44.240Z,0
2018-02-08T01:01:06.071Z,0
2018-02-08T01:02:28.148Z,0
2018-02-08T01:03:49.560Z,0
2018-02-08T01:05:11.392Z,0
2018-02-08T01:06:33.023Z,0
2018-02-08T01:07:54.931Z,0
2018-02-08T01:09:16.943Z,0
2018-02-08T01:10:39.110Z,0
2018-02-08T01:12:00.723Z,0
2018-02-08T01:13:22.839Z,0
2018-02-08T01:14:44.186Z,0
2018-02-08T01:16:05.783Z,0
2018-02-08T01:17:27.881Z,0
2018-02-08T01:18:49.766Z,0
2018-02-08T01:20:11.657Z,0
2018-02-08T01:21:33.870Z,0
2018-02-08T01:22:55.465Z,0
2018-02-08T01:24:17.088Z,0
2018-02-08T01:25:38.990Z,0
2018-02-08T01:27:00.604Z,0
2018-02-08T01:28:21.942Z,0
2018-02-08T01:29:44.052Z,0
2018-02-08T01:31:05.652Z,0
2018-02-08T01:32:27.226Z,0
2018-02-08T01:33:48.826Z,0
2018-02-08T01:35:10.701Z,0
2018-02-08T01:36:32.629Z,0
2018-02-08T01:37:54.483Z,0
2018-02-08T01:39:16.581Z,0
2018-02-08T01:40:38.267Z,0
2018-02-08T01:41:59.846Z,0
2018-02-08T01:43:21.953Z,0
2018-02-08T01:44:44.052Z,0
2018-02-08T01:46:06.147Z,0
2018-02-08T01:47:28.276Z,0
2018-02-08T01:48:49.618Z,0
2018-02-08T01:50:11.482Z,0
2018-02-08T01:51:33.361Z,0
2018-02-08T01:52:55.547Z,0
2018-02-08T01:54:17.438Z,0
2018-02-08T01:55:39.022Z,0
2018-02-08T01:57:00.833Z,0
2018-02-08T01:58:22.693Z,0
2018-02-08T01:59:44.582Z,0
2018-02-08T02:01:06.687Z,0
2018-02-08T02:02:28.550Z,0
2018-02-08T02:03:50.405Z,0
2018-02-08T02:05:12.521Z,0
2018-02-08T02:06:34.728Z,0
2018-02-08T02:07:56.850Z,0
2018-02-08T02:09:18.416Z,0
2018-02-08T02:10:40.641Z,0
2018-02-08T02:12:01.865Z,0
2018-02-08T02:13:23.982Z,0
2018-02-08T02:14:45.840Z,0
2018-02-08T02:16:07.448Z,0
2018-02-08T02:17:30.068Z,0
2018-02-08T02:18:51.919Z,0
2018-02-08T02:20:13.796Z,0
2018-02-08T02:21:35.901Z,0
2018-02-08T02:22:58.417Z,0
2018-02-08T02:24:20.671Z,0
2018-02-08T02:25:42.005Z,0
2018-02-08T02:27:03.864Z,0
2018-02-08T02:28:25.482Z,0
2018-02-08T02:29:47.072Z,0
2018-02-08T02:31:09.211Z,0
2018-02-08T02:32:31.342Z,0
2018-02-08T02:33:53.040Z,0
2018-02-08T02:35:14.906Z,0
2018-02-08T02:36:37.029Z,0
2018-02-08T02:37:59.228Z,0
2018-02-08T02:39:21.404Z,0
2018-02-08T02:40:42.995Z,0
2018-02-08T02:42:04.918Z,0
2018-02-08T02:43:27.051Z,0
2018-02-08T02:44:49.860Z,0
2018-02-08T02:46:11.733Z,0
2018-02-08T02:47:33.307Z,0
2018-02-08T02:48:55.223Z,0
2018-02-08T02:50:17.337Z,0
2018-02-08T02:51:39.240Z,0
2018-02-08T02:53:01.114Z,0
2018-02-08T02:54:23.099Z,0
2018-02-08T02:55:45.232Z,0
2018-02-08T02:57:07.087Z,0
2018-02-08T02:58:28.665Z,0
2018-02-08T02:59:50.631Z,0
2018-02-08T03:01:12.924Z,0
2018-02-08T03:02:34.651Z,0
2018-02-08T03:03:56.768Z,0
2018-02-08T03:05:18.886Z,0
2018-02-08T03:06:40.300Z,0
2018-02-08T03:08:02.086Z,0
2018-02-08T03:09:23.703Z,0
2018-02-08T03:10:45.321Z,0
2018-02-08T03:12:07.251Z,0
2018-02-08T03:13:29.108Z,0
2018-02-08T03:14:51.203Z,0
2018-02-08T03:16:12.587Z,0
2018-02-08T03:17:34.196Z,0
2018-02-08T03:18:55.892Z,0
2018-02-08T03:20:17.984Z,0
2018-02-08T03:21:39.582Z,0
2018-02-08T03:23:01.750Z,0
2018-02-08T03:24:23.675Z,0
2018-02-08T03:25:45.651Z,0
2018-02-08T03:27:06.712Z,0
2018-02-08T03:28:28.200Z,0
2018-02-08T03:29:50.042Z,0
2018-02-08T03:31:12.161Z,0
2018-02-08T03:32:33.512Z,0
2018-02-08T03:33:55.112Z,0
2018-02-08T03:35:17.070Z,0
2018-02-08T03:36:38.904Z,0
2018-02-08T03:38:00.906Z,0
2018-02-08T03:39:22.553Z,0
2018-02-08T03:40:44.413Z,0
2018-02-08T03:42:06.273Z,0
2018-02-08T03:43:28.143Z,0
2018-02-08T03:44:50.262Z,0
2018-02-08T03:46:11.981Z,0
2018-02-08T03:47:33.821Z,0
2018-02-08T03:48:55.704Z,0
2018-02-08T03:50:17.584Z,0
2018-02-08T03:51:39.477Z,0
2018-02-08T03:53:01.585Z,0
2018-02-08T03:54:23.181Z,0
2018-02-08T03:55:44.773Z,0
2018-02-08T03:57:06.360Z,0
2018-02-08T03:58:28.208Z,0
2018-02-08T03:59:50.072Z,0
2018-02-08T04:01:12.482Z,0
2018-02-08T04:02:33.902Z,0
2018-02-08T04:03:55.228Z,0
2018-02-08T04:05:17.042Z,0
2018-02-08T04:06:38.664Z,0
2018-02-08T04:08:00.524Z,0
2018-02-08T04:09:22.112Z,0
2018-02-08T04:10:44.261Z,0
2018-02-08T04:12:06.124Z,0
2018-02-08T04:13:28.246Z,0
2018-02-08T04:14:50.090Z,0
2018-02-08T04:16:11.927Z,0
2018-02-08T04:17:33.820Z,0
2018-02-08T04:18:55.677Z,0
2018-02-08T04:20:17.015Z,0
2018-02-08T04:21:38.371Z,0
2018-02-08T04:23:00.499Z,0
2018-02-08T04:24:22.204Z,0
2018-02-08T04:25:44.379Z,0
2018-02-08T04:27:06.506Z,0
2018-02-08T04:28:28.191Z,0
2018-02-08T04:29:49.794Z,0
2018-02-08T04:31:11.891Z,0
2018-02-08T04:32:34.018Z,0
2018-02-08T04:33:55.860Z,0
2018-02-08T04:35:17.436Z,0
2018-02-08T04:36:39.631Z,0
2018-02-08T04:38:01.730Z,0
2018-02-08T04:39:23.870Z,0
2018-02-08T04:40:46.078Z,0
2018-02-08T04:42:07.942Z,0
2018-02-08T04:43:30.093Z,0
2018-02-08T04:44:51.974Z,0
2018-02-08T04:46:14.097Z,0
2018-02-08T04:47:36.262Z,0
2018-02-08T04:48:57.608Z,0
2018-02-08T04:50:19.202Z,0
2018-02-08T04:51:40.548Z,0
2018-02-08T04:53:02.223Z,0
2018-02-08T04:54:24.341Z,0
2018-02-08T04:55:46.172Z,0
2018-02-08T04:57:08.003Z,0
2018-02-08T04:58:29.867Z,0
2018-02-08T04:59:51.967Z,0
2018-02-08T05:01:14.418Z,0
2018-02-08T05:02:36.271Z,0
2018-02-08T05:03:58.139Z,0
2018-02-08T05:05:20.224Z,0
2018-02-08T05:06:41.823Z,0
2018-02-08T05:08:04.034Z,0
2018-02-08T05:09:25.861Z,0
2018-02-08T05:10:47.711Z,0
2018-02-08T05:12:09.328Z,0
2018-02-08T05:13:30.647Z,0
2018-02-08T05:14:51.981Z,0
2018-02-08T05:16:13.593Z,0
2018-02-08T05:17:35.072Z,0
2018-02-08T05:18:56.658Z,0
2018-02-08T05:20:18.728Z,0
2018-02-08T05:21:40.606Z,0
2018-02-08T05:23:03.017Z,0
2018-02-08T05:24:24.871Z,0
2018-02-08T05:25:46.711Z,0
2018-02-08T05:27:08.550Z,0
2018-02-08T05:28:30.971Z,0
2018-02-08T05:29:53.214Z,0
2018-02-08T05:31:14.803Z,0
2018-02-08T05:32:36.686Z,0
2018-02-08T05:33:58.635Z,0
2018-02-08T05:35:20.522Z,0
2018-02-08T05:36:42.633Z,0
2018-02-08T05:38:04.589Z,0
2018-02-08T05:39:26.504Z,0
2018-02-08T05:40:48.356Z,0
2018-02-08T05:42:10.211Z,0
2018-02-08T05:43:32.081Z,0
2018-02-08T05:44:54.112Z,0
2018-02-08T05:46:16.033Z,0
2018-02-08T05:47:37.890Z,0
2018-02-08T05:48:59.842Z,0
2018-02-08T05:50:21.987Z,0
2018-02-08T05:51:43.603Z,0
2018-02-08T05:53:05.238Z,0
2018-02-08T05:54:26.598Z,0
2018-02-08T05:55:48.411Z,0
2018-02-08T05:57:10.250Z,0
2018-02-08T05:58:31.882Z,0
2018-02-08T05:59:54.018Z,0
2018-02-08T06:01:16.119Z,0
2018-02-08T06:02:37.722Z,0
2018-02-08T06:03:59.632Z,0
2018-02-08T06:05:21.242Z,0
2018-02-08T06:06:43.237Z,0
2018-02-08T06:08:05.461Z,0
2018-02-08T06:09:27.299Z,0
2018-02-08T06:10:49.188Z,0
2018-02-08T06:12:10.516Z,0
2018-02-08T06:13:32.387Z,0
2018-02-08T06:14:54.362Z,0
2018-02-08T06:16:16.205Z,0
2018-02-08T06:17:37.905Z,0
2018-02-08T06:18:59.786Z,0
2018-02-08T06:20:21.668Z,0
2018-02-08T06:21:43.560Z,0
2018-02-08T06:23:05.002Z,0
2018-02-08T06:24:26.731Z,0
2018-02-08T06:25:48.680Z,0
2018-02-08T06:27:10.799Z,0
2018-02-08T06:28:32.654Z,0
2018-02-08T06:29:54.785Z,0
2018-02-08T06:31:16.673Z,0
2018-02-08T06:32:38.521Z,0
2018-02-08T06:34:00.639Z,0
2018-02-08T06:35:22.727Z,0
2018-02-08T06:36:44.324Z,0
2018-02-08T06:38:06.460Z,0
2018-02-08T06:39:28.420Z,0
2018-02-08T06:40:50.373Z,0
2018-02-08T06:42:11.820Z,0
2018-02-08T06:43:33.914Z,0
2018-02-08T06:44:56.030Z,0
2018-02-08T06:46:17.603Z,5
2018-02-08T06:47:39.470Z,5
2018-02-08T06:49:01.344Z,5
2018-02-08T06:50:23.180Z,5
2018-02-08T06:51:45.041Z,10
2018-02-08T06:53:06.959Z,10
2018-02-08T06:54:29.068Z,10
2018-02-08T06:55:50.413Z,10
2018-02-08T06:57:12.617Z,10
2018-02-08T06:58:34.062Z,15
2018-02-08T06:59:55.964Z,15
2018-02-08T07:01:17.402Z,15
2018-02-08T07:02:39.280Z,15
2018-02-08T07:04:01.115Z,20
2018-02-08T07:05:23.050Z,20
2018-02-08T07:06:44.993Z,20
2018-02-08T07:08:07.133Z,25
2018-02-08T07:09:28.751Z,25
2018-02-08T07:10:50.375Z,25
2018-02-08T07:12:12.255Z,30
2018-02-08T07:13:34.398Z,30
2018-02-08T07:14:55.991Z,30
2018-02-08T07:16:18.212Z,30
2018-02-08T07:17:40.068Z,35
2018-02-08T07:19:01.921Z,35
2018-02-08T07:20:23.781Z,40
2018-02-08T07:21:45.941Z,40
2018-02-08T07:23:07.532Z,40
2018-02-08T07:24:29.120Z,45
2018-02-08T07:25:51.248Z,45
2018-02-08T07:27:12.830Z,45
2018-02-08T07:28:35.001Z,50
2018-02-08T07:29:57.134Z,50
2018-02-08T07:31:19.205Z,50
2018-02-08T07:32:41.114Z,55
2018-02-08T07:34:02.604Z,55
2018-02-08T07:35:24.011Z,55
2018-02-08T07:36:47.947Z,55
2018-02-08T07:38:09.561Z,60
2018-02-08T07:39:31.418Z,60
2018-02-08T07:40:53.016Z,60
2018-02-08T07:42:14.622Z,60
2018-02-08T07:43:36.254Z,65
2018-02-08T07:44:58.119Z,65
2018-02-08T07:46:19.982Z,65
2018-02-08T07:47:41.297Z,70
2018-02-08T07:49:03.435Z,70
2018-02-08T07:50:25.025Z,70
2018-02-08T07:51:46.640Z,75
2018-02-08T07:53:08.528Z,75
2018-02-08T07:54:30.366Z,75
2018-02-08T07:55:52.514Z,75
2018-02-08T07:57:14.661Z,75
2018-02-08T07:58:36.816Z,80
2018-02-08T07:59:59.010Z,80
2018-02-08T08:01:21.227Z,80
2018-02-08T08:02:42.931Z,80
2018-02-08T08:04:04.852Z,80
2018-02-08T08:05:26.834Z,80
2018-02-08T08:06:48.963Z,80
2018-02-08T08:08:11.096Z,75
2018-02-08T08:09:32.974Z,80
2018-02-08T08:10:55.081Z,80
2018-02-08T08:12:16.944Z,80
2018-02-08T08:13:39.072Z,80
2018-02-08T08:15:00.954Z,85
2018-02-08T08:16:22.954Z,85
2018-02-08T08:17:45.125Z,85
2018-02-08T08:19:07.253Z,85
2018-02-08T08:20:28.619Z,85
2018-02-08T08:21:50.749Z,90
2018-02-08T08:23:12.606Z,90
2018-02-08T08:24:34.481Z,95
2018-02-08T08:25:56.353Z,95
2018-02-08T08:27:18.244Z,100
2018-02-08T08:28:40.388Z,100
2018-02-08T08:30:02.322Z,100
2018-02-08T08:31:24.199Z,105
2018-02-08T08:32:46.109Z,105
2018-02-08T08:34:08.364Z,105
2018-02-08T08:35:30.215Z,105
2018-02-08T08:36:52.316Z,105
2018-02-08T08:38:14.281Z,105
2018-02-08T08:39:36.252Z,100
2018-02-08T08:40:58.372Z,100
2018-02-08T08:42:20.538Z,100
2018-02-08T08:43:42.582Z,95
2018-02-08T08:45:04.434Z,90
2018-02-08T08:46:26.568Z,90
2018-02-08T08:47:48.593Z,90
2018-02-08T08:49:10.527Z,95
2018-02-08T08:50:32.145Z,95
2018-02-08T08:51:54.018Z,95
2018-02-08T08:53:15.650Z,95
2018-02-08T08:54:37.973Z,95
2018-02-08T08:55:59.921Z,95
2018-02-08T08:57:21.921Z,90
2018-02-08T08:58:44.062Z,95
2018-02-08T09:00:06.317Z,95
2018-02-08T09:01:28.172Z,95
2018-02-08T09:02:50.288Z,90
2018-02-08T09:04:11.921Z,90
2018-02-08T09:05:33.900Z,95
2018-02-08T09:06:56.100Z,100
2018-02-08T09:08:17.988Z,100
2018-02-08T09:09:39.878Z,105
2018-02-08T09:11:01.484Z,110
2018-02-08T09:12:23.181Z,110
2018-02-08T09:13:45.311Z,110
2018-02-08T09:15:07.198Z,110
2018-02-08T09:16:29.401Z,110
2018-02-08T09:17:51.004Z,115
2018-02-08T09:19:12.847Z,115
2018-02-08T09:20:34.548Z,115
2018-02-08T09:21:56.754Z,115
2018-02-08T09:23:18.377Z,115
2018-02-08T09:24:40.260Z,115
2018-02-08T09:26:02.125Z,115
2018-02-08T09:27:23.726Z,115
2018-02-08T09:28:45.840Z,120
2018-02-08T09:30:07.531Z,120
2018-02-08T09:31:29.419Z,120
2018-02-08T09:32:51.353Z,120
2018-02-08T09:34:13.216Z,120
2018-02-08T09:35:35.088Z,120
2018-02-08T09:36:57.328Z,120
2018-02-08T09:38:19.325Z,120
2018-02-08T09:39:41.577Z,120
2018-02-08T09:41:03.510Z,125
2018-02-08T09:42:25.513Z,125
2018-02-08T09:43:47.629Z,125
2018-02-08T09:45:09.882Z,125
2018-02-08T09:46:31.612Z,125
2018-02-08T09:47:53.740Z,125
2018-02-08T09:49:15.626Z,125
2018-02-08T09:50:37.490Z,130
2018-02-08T09:51:59.130Z,125
2018-02-08T09:53:20.772Z,130
2018-02-08T09:54:42.652Z,130
2018-02-08T09:56:04.535Z,125
2018-02-08T09:57:26.477Z,125
2018-02-08T09:58:48.396Z,125
2018-02-08T10:00:09.491Z,120
2018-02-08T10:01:31.258Z,120
2018-02-08T10:02:53.170Z,125
2018-02-08T10:04:15.340Z,130
2018-02-08T10:05:37.280Z,130
2018-02-08T10:06:59.761Z,130
2018-02-08T10:08:21.739Z,130
2018-02-08T10:09:43.881Z,130
2018-02-08T10:11:05.232Z,130
2018-02-08T10:12:26.896Z,130
2018-02-08T10:13:48.516Z,130
2018-02-08T10:15:10.123Z,130
2018-02-08T10:16:31.986Z,135
2018-02-08T10:17:55.480Z,130
2018-02-08T10:19:17.360Z,130
2018-02-08T10:20:39.391Z,135
2018-02-08T10:22:01.531Z,130
2018-02-08T10:23:23.231Z,130
2018-02-08T10:24:44.859Z,125
2018-02-08T10:26:07.020Z,130
2018-02-08T10:27:29.145Z,135
2018-02-08T10:28:51.341Z,135
2018-02-08T10:30:12.984Z,135
2018-02-08T10:31:35.129Z,135
2018-02-08T10:32:56.838Z,135
2018-02-08T10:34:19.053Z,135
2018-02-08T10:35:40.672Z,135
2018-02-08T10:37:02.140Z,135
2018-02-08T10:38:23.750Z,135
2018-02-08T10:39:45.766Z,135
2018-02-08T10:41:07.955Z,135
2018-02-08T10:42:29.652Z,135
2018-02-08T10:43:51.355Z,135
2018-02-08T10:45:13.463Z,130
2018-02-08T10:46:35.018Z,130
2018-02-08T10:47:57.117Z,130
2018-02-08T10:49:18.822Z,130
2018-02-08T10:50:40.986Z,125
2018-02-08T10:52:02.651Z,130
2018-02-08T10:53:24.921Z,130
2018-02-08T10:54:46.797Z,130
2018-02-08T10:56:08.407Z,130
2018-02-08T10:57:30.306Z,130
2018-02-08T10:58:51.887Z,130
2018-02-08T11:00:13.791Z,130
2018-02-08T11:01:36.060Z,130
2018-02-08T11:02:57.700Z,130
2018-02-08T11:04:19.808Z,130
2018-02-08T11:05:41.382Z,130
2018-02-08T11:07:03.315Z,130
2018-02-08T11:08:25.166Z,130
2018-02-08T11:09:47.109Z,130
2018-02-08T11:11:08.813Z,130
2018-02-08T11:12:30.782Z,135
2018-02-08T11:13:52.993Z,135
2018-02-08T11:15:15.226Z,135
2018-02-08T11:16:37.221Z,135
2018-02-08T11:17:58.585Z,135
2018-02-08T11:19:19.949Z,135
2018-02-08T11:20:42.127Z,135
2018-02-08T11:22:04.282Z,140
2018-02-08T11:23:25.960Z,135
2018-02-08T11:24:47.836Z,135
2018-02-08T11:26:09.724Z,140
2018-02-08T11:27:31.244Z,135
2018-02-08T11:28:52.841Z,135
2018-02-08T11:30:15.023Z,135
2018-02-08T11:31:37.046Z,135
2018-02-08T11:32:58.904Z,135
2018-02-08T11:34:20.234Z,135
2018-02-08T11:35:42.176Z,135
2018-02-08T11:37:04.024Z,135
2018-02-08T11:38:26.149Z,135
2018-02-08T11:39:48.369Z,140
2018-02-08T11:41:10.384Z,140
2018-02-08T11:42:32.526Z,140
2018-02-08T11:43:54.465Z,140
2018-02-08T11:45:17.064Z,140
2018-02-08T11:46:39.066Z,140
2018-02-08T11:48:00.986Z,140
2018-02-08T11:49:22.925Z,140
2018-02-08T11:50:44.507Z,140
2018-02-08T11:52:06.568Z,135
2018-02-08T11:53:27.925Z,135
2018-02-08T11:54:49.631Z,135
2018-02-08T11:56:11.538Z,135
2018-02-08T11:57:33.146Z,135
2018-02-08T11:58:55.281Z,135
2018-02-08T12:00:17.143Z,135
2018-02-08T12:01:39.033Z,135
2018-02-08T12:03:00.391Z,140
2018-02-08T12:04:22.029Z,140
2018-02-08T12:05:43.893Z,140
2018-02-08T12:07:06.064Z,140
2018-02-08T12:08:27.728Z,140
2018-02-08T12:09:49.613Z,140
2018-02-08T12:11:11.336Z,140
2018-02-08T12:12:33.244Z,140
2018-02-08T12:13:54.840Z,145
2018-02-08T12:15:16.704Z,145
2018-02-08T12:16:38.689Z,145
2018-02-08T12:18:00.950Z,145
2018-02-08T12:19:22.800Z,145
2018-02-08T12:20:44.962Z,145
2018-02-08T12:22:07.013Z,150
2018-02-08T12:23:28.910Z,150
2018-02-08T12:24:50.802Z,150
2018-02-08T12:26:12.775Z,150
2018-02-08T12:27:34.630Z,155
2018-02-08T12:28:56.523Z,150
2018-02-08T12:30:18.392Z,150
2018-02-08T12:31:40.375Z,150
2018-02-08T12:33:02.213Z,150
2018-02-08T12:34:24.080Z,150
2018-02-08T12:35:45.950Z,150
2018-02-08T12:37:08.161Z,150
2018-02-08T12:38:30.147Z,150
2018-02-08T12:39:52.153Z,155
2018-02-08T12:41:14.301Z,150
2018-02-08T12:42:36.021Z,150
2018-02-08T12:43:57.890Z,150
2018-02-08T12:45:19.394Z,150
2018-02-08T12:46:41.536Z,145
2018-02-08T12:48:03.640Z,145
2018-02-08T12:49:25.750Z,145
2018-02-08T12:50:47.900Z,145
2018-02-08T12:52:10.053Z,150
2018-02-08T12:53:32.245Z,150
2018-02-08T12:54:54.396Z,150
2018-02-08T12:56:16.402Z,145
2018-02-08T12:57:38.667Z,145
2018-02-08T12:59:01.162Z,140
2018-02-08T13:00:23.412Z,145
2018-02-08T13:01:46.265Z,145
2018-02-08T13:03:08.748Z,140
2018-02-08T13:04:31.471Z,140
2018-02-08T13:05:53.773Z,140
2018-02-08T13:07:15.818Z,140
2018-02-08T13:08:37.809Z,135
2018-02-08T13:09:59.152Z,135
2018-02-08T13:11:21.338Z,140
2018-02-08T13:12:42.672Z,135
2018-02-08T13:14:04.587Z,125
2018-02-08T13:15:26.196Z,125
2018-02-08T13:16:48.069Z,125
2018-02-08T13:18:10.234Z,130
2018-02-08T13:19:32.263Z,125
2018-02-08T13:20:54.233Z,125
2018-02-08T13:22:16.459Z,120
2018-02-08T13:23:38.672Z,120
2018-02-08T13:25:00.591Z,120
2018-02-08T13:26:22.815Z,120
2018-02-08T13:27:44.661Z,115
2018-02-08T13:29:06.819Z,115
2018-02-08T13:30:28.679Z,110
2018-02-08T13:31:50.761Z,110
2018-02-08T13:33:12.642Z,105
2018-02-08T13:34:34.488Z,105
2018-02-08T13:35:56.498Z,105
2018-02-08T13:37:18.384Z,105
2018-02-08T13:38:40.515Z,105
2018-02-08T13:40:02.177Z,105
2018-02-08T13:41:23.872Z,110
2018-02-08T13:42:46.018Z,110
2018-02-08T13:44:07.899Z,110
2018-02-08T13:45:30.062Z,115
2018-02-08T13:46:52.054Z,115
2018-02-08T13:48:13.929Z,115
2018-02-08T13:49:35.908Z,115
2018-02-08T13:50:58.169Z,115
2018-02-08T13:52:20.372Z,115
2018-02-08T13:53:42.581Z,115
2018-02-08T13:55:03.962Z,115
2018-02-08T13:56:27.172Z,115
2018-02-08T13:57:48.770Z,115
2018-02-08T13:59:10.894Z,115
2018-02-08T14:00:32.761Z,115
2018-02-08T14:01:54.778Z,115
2018-02-08T14:03:16.385Z,110
2018-02-08T14:04:38.536Z,110
2018-02-08T14:06:00.676Z,110
2018-02-08T14:07:22.545Z,110
2018-02-08T14:08:44.743Z,110
2018-02-08T14:10:06.625Z,105
2018-02-08T14:11:27.972Z,105
2018-02-08T14:12:50.154Z,105
2018-02-08T14:14:12.269Z,105
2018-02-08T14:15:33.900Z,105
2018-02-08T14:16:56.046Z,105
2018-02-08T14:18:18.172Z,100
2018-02-08T14:19:40.291Z,100
2018-02-08T14:21:02.157Z,100
2018-02-08T14:22:24.326Z,100
2018-02-08T14:23:46.220Z,100
2018-02-08T14:25:08.106Z,100
2018-02-08T14:26:30.261Z,100
2018-02-08T14:27:52.162Z,95
2018-02-08T14:29:14.107Z,95
2018-02-08T14:30:36.383Z,95
2018-02-08T14:31:58.249Z,95
2018-02-08T14:33:19.660Z,95
2018-02-08T14:34:41.625Z,95
2018-02-08T14:36:03.526Z,95
2018-02-08T14:37:25.173Z,95
2018-02-08T14:38:47.335Z,95
2018-02-08T14:40:09.549Z,95
2018-02-08T14:41:31.728Z,95
2018-02-08T14:42:53.627Z,95
2018-02-08T14:44:15.586Z,95
2018-02-08T14:45:37.329Z,90
2018-02-08T14:46:59.485Z,90
2018-02-08T14:48:21.747Z,90
2018-02-08T14:49:43.400Z,90
2018-02-08T14:51:05.564Z,90
2018-02-08T14:52:27.694Z,90
2018-02-08T14:53:49.852Z,85
2018-02-08T14:55:12.016Z,85
2018-02-08T14:56:34.445Z,85
2018-02-08T14:57:56.096Z,85
2018-02-08T14:59:18.221Z,85
2018-02-08T15:00:39.844Z,80
2018-02-08T15:02:01.913Z,80
2018-02-08T15:03:23.514Z,80
2018-02-08T15:04:45.407Z,80
2018-02-08T15:06:07.087Z,80
2018-02-08T15:07:29.057Z,75
2018-02-08T15:08:50.979Z,75
2018-02-08T15:10:13.114Z,75
2018-02-08T15:11:35.462Z,75
2018-02-08T15:12:57.671Z,75
2018-02-08T15:14:19.653Z,70
2018-02-08T15:15:41.652Z,70
2018-02-08T15:17:03.832Z,70
2018-02-08T15:18:25.985Z,70
2018-02-08T15:19:47.613Z,65
2018-02-08T15:21:09.205Z,65
2018-02-08T15:22:30.873Z,65
2018-02-08T15:23:53.024Z,65
2018-02-08T15:25:15.165Z,60
2018-02-08T15:26:37.041Z,60
2018-02-08T15:27:59.281Z,60
2018-02-08T15:29:21.823Z,60
2018-02-08T15:30:43.991Z,55
2018-02-08T15:32:05.854Z,55
2018-02-08T15:33:28.047Z,55
2018-02-08T15:34:50.209Z,50
2018-02-08T15:36:11.837Z,50
2018-02-08T15:37:33.694Z,50
2018-02-08T15:38:55.603Z,50
2018-02-08T15:40:17.497Z,45
2018-02-08T15:41:39.642Z,45
2018-02-08T15:43:01.627Z,45
2018-02-08T15:44:23.851Z,40
2018-02-08T15:45:46.047Z,40
2018-02-08T15:47:07.699Z,40
2018-02-08T15:48:29.777Z,35
2018-02-08T15:49:51.914Z,35
2018-02-08T15:51:14.144Z,35
2018-02-08T15:52:36.042Z,35
2018-02-08T15:53:57.990Z,30
2018-02-08T15:55:20.166Z,30
2018-02-08T15:56:42.900Z,30
2018-02-08T15:58:04.904Z,25
2018-02-08T15:59:27.236Z,25
2018-02-08T16:00:49.193Z,25
2018-02-08T16:02:11.241Z,20
2018-02-08T16:03:33.116Z,20
2018-02-08T16:04:55.285Z,20
2018-02-08T16:06:17.548Z,20
2018-02-08T16:07:39.749Z,15
2018-02-08T16:09:01.940Z,15
2018-02-08T16:10:24.118Z,15
2018-02-08T16:11:46.046Z,10
2018-02-08T16:13:08.328Z,10
2018-02-08T16:14:30.220Z,10
2018-02-08T16:15:52.091Z,10
2018-02-08T16:17:13.984Z,10
2018-02-08T16:18:35.952Z,5
2018-02-08T16:19:58.266Z,5
2018-02-08T16:21:20.177Z,5
2018-02-08T16:22:42.348Z,5
2018-02-08T16:24:04.531Z,5
2018-02-08T16:25:26.661Z,5
2018-02-08T16:26:48.835Z,0
2018-02-08T16:28:10.748Z,0
2018-02-08T16:29:32.866Z,0
2018-02-08T16:30:54.873Z,0
2018-02-08T16:32:16.730Z,0
2018-02-08T16:33:38.894Z,0
2018-02-08T16:35:01.065Z,0
2018-02-08T16:36:22.933Z,0
2018-02-08T16:37:45.093Z,0
2018-02-08T16:39:07.016Z,0
2018-02-08T16:40:29.008Z,0
2018-02-08T16:41:50.888Z,0
2018-02-08T16:43:13.054Z,0
2018-02-08T16:44:35.184Z,0
2018-02-08T16:45:57.088Z,0
2018-02-08T16:47:19.251Z,0
2018-02-08T16:48:41.428Z,0
2018-02-08T16:50:03.738Z,0
2018-02-08T16:51:25.461Z,0
2018-02-08T16:52:47.660Z,0
2018-02-08T16:54:09.530Z,0
2018-02-08T16:55:31.403Z,0
2018-02-08T16:56:53.739Z,0
2018-02-08T16:58:16.010Z,0
2018-02-08T16:59:38.267Z,0
2018-02-08T17:01:00.187Z,0
2018-02-08T17:02:22.042Z,0
2018-02-08T17:03:44.184Z,0
2018-02-08T17:05:06.509Z,0
2018-02-08T17:06:28.621Z,0
2018-02-08T17:07:50.830Z,0
2018-02-08T17:09:12.985Z,0
2018-02-08T17:10:35.178Z,0
2018-02-08T17:11:57.311Z,0
2018-02-08T17:13:19.236Z,0
2018-02-08T17:14:41.411Z,0
2018-02-08T17:16:03.657Z,0
2018-02-08T17:17:25.847Z,0
2018-02-08T17:18:47.760Z,0
2018-02-08T17:20:09.732Z,0
2018-02-08T17:21:31.950Z,0
2018-02-08T17:22:54.100Z,0
2018-02-08T17:24:16.282Z,0
2018-02-08T17:25:38.166Z,0
2018-02-08T17:27:00.120Z,0
2018-02-08T17:28:22.011Z,0
2018-02-08T17:29:43.983Z,0
2018-02-08T17:31:06.282Z,0
2018-02-08T17:32:28.567Z,0
2018-02-08T17:33:50.744Z,0
2018-02-08T17:35:12.994Z,0
2018-02-08T17:36:35.136Z,0
2018-02-08T17:37:57.130Z,0
2018-02-08T17:39:19.271Z,0
2018-02-08T17:40:41.422Z,0
2018-02-08T17:42:03.537Z,0
2018-02-08T17:43:25.683Z,0
2018-02-08T17:44:47.826Z,0
2018-02-08T17:46:09.972Z,0
2018-02-08T17:47:31.884Z,0
2018-02-08T17:48:53.843Z,0
2018-02-08T17:50:16.078Z,0
2018-02-08T17:51:38.263Z,0
2018-02-08T17:53:00.415Z,0
2018-02-08T17:54:22.810Z,0
2018-02-08T17:55:44.724Z,0
2018-02-08T17:57:06.919Z,0
2018-02-08T17:58:29.102Z,0
2018-02-08T17:59:50.752Z,0
2018-02-08T18:01:12.953Z,0
2018-02-08T18:02:35.112Z,0
2018-02-08T18:03:57.282Z,0
2018-02-08T18:05:18.922Z,0
2018-02-08T18:06:40.832Z,0
2018-02-08T18:08:02.967Z,0
2018-02-08T18:09:24.888Z,0
2018-02-08T18:10:47.098Z,0
2018-02-08T18:12:09.292Z,0
2018-02-08T18:13:31.481Z,0
2018-02-08T18:14:53.638Z,0
2018-02-08T18:16:15.819Z,0
2018-02-08T18:17:37.747Z,0
2018-02-08T18:18:59.983Z,0
2018-02-08T18:20:21.650Z,0
2018-02-08T18:21:43.922Z,0
2018-02-08T18:23:05.919Z,0
2018-02-08T18:24:28.094Z,0
2018-02-08T18:25:50.235Z,0
2018-02-08T18:27:12.375Z,0
2018-02-08T18:28:34.290Z,0
2018-02-08T18:29:56.655Z,0
2018-02-08T18:31:18.833Z,0
2018-02-08T18:32:40.999Z,0
2018-02-08T18:34:03.169Z,0
2018-02-08T18:35:25.337Z,0
2018-02-08T18:36:47.226Z,0
2018-02-08T18:38:09.373Z,0
2018-02-08T18:39:31.536Z,0
2018-02-08T18:40:53.846Z,0
2018-02-08T18:42:16.017Z,0
2018-02-08T18:43:38.172Z,0
2018-02-08T18:45:00.371Z,0
2018-02-08T18:46:22.522Z,0
2018-02-08T18:47:44.683Z,0
2018-02-08T18:49:06.844Z,0
2018-02-08T18:50:29.161Z,0
2018-02-08T18:51:51.373Z,0
2018-02-08T18:53:13.520Z,0
2018-02-08T18:54:35.579Z,0
2018-02-08T18:55:57.480Z,0
2018-02-08T18:57:19.577Z,0
2018-02-08T18:58:41.811Z,0
2018-02-08T19:00:03.754Z,0
2018-02-08T19:01:25.702Z,0
2018-02-08T19:02:47.964Z,0
2018-02-08T19:04:09.891Z,0
2018-02-08T19:05:31.773Z,0
2018-02-08T19:06:53.495Z,0
2018-02-08T19:08:15.417Z,0
2018-02-08T19:09:37.415Z,0
2018-02-08T19:10:59.583Z,0
2018-02-08T19:12:21.764Z,0
2018-02-08T19:13:43.450Z,0
2018-02-08T19:15:05.633Z,0
2018-02-08T19:16:27.779Z,0
2018-02-08T19:17:49.941Z,0
2018-02-08T19:19:12.301Z,0
2018-02-08T19:20:34.529Z,0
2018-02-08T19:21:56.444Z,0
2018-02-08T19:23:18.682Z,0
2018-02-08T19:24:40.900Z,0
2018-02-08T19:26:02.795Z,0
2018-02-08T19:27:24.941Z,0
2018-02-08T19:28:46.584Z,0
2018-02-08T19:30:08.932Z,0
2018-02-08T19:31:30.571Z,0
2018-02-08T19:32:52.446Z,0
2018-02-08T19:34:14.629Z,0
2018-02-08T19:35:36.531Z,0
2018-02-08T19:36:58.510Z,0
2018-02-08T19:38:20.811Z,0